createdAt,value
2018-09-09T00:00:16.641Z,15.10
2018-09-09T00:02:46.370Z,15.10
2018-09-09T00:05:16.160Z,15.00
2018-09-09T00:07:45.638Z,15.00
2018-09-09T00:10:15.391Z,15.00
2018-09-09T00:12:44.947Z,15.00
2018-09-09T00:15:15.106Z,14.90
2018-09-09T00:17:44.511Z,15.10
2018-09-09T00:20:13.947Z,15.10
2018-09-09T00:22:45.563Z,15.00
2018-09-09T00:25:15.550Z,15.00
2018-09-09T00:27:45.487Z,15.00
2018-09-09T00:30:15.389Z,15.00
2018-09-09T00:35:44.234Z,14.90
2018-09-09T00:38:14.079Z,14.90
2018-09-09T00:40:43.781Z,14.90
2018-09-09T00:43:13.676Z,14.90
2018-09-09T00:45:43.249Z,15.00
2018-09-09T00:48:13.164Z,15.00
2018-09-09T00:50:48.267Z,15.00
2018-09-09T00:53:23.308Z,15.00
2018-09-09T00:55:52.720Z,14.90
2018-09-09T00:58:22.640Z,14.90
2018-09-09T01:00:57.813Z,14.90
2018-09-09T01:03:27.710Z,14.90
2018-09-09T01:05:57.583Z,14.90
2018-09-09T01:08:27.744Z,14.90
2018-09-09T01:10:57.690Z,14.90
2018-09-09T01:13:28.008Z,14.90
2018-09-09T01:15:58.086Z,15.00
2018-09-09T01:18:27.569Z,14.90
2018-09-09T01:20:57.105Z,14.80
2018-09-09T01:23:26.793Z,14.80
2018-09-09T01:26:00.036Z,14.90
2018-09-09T01:28:30.310Z,14.90
2018-09-09T01:31:00.261Z,14.80
2018-09-09T01:33:30.399Z,14.90
2018-09-09T01:36:00.256Z,14.80
2018-09-09T01:38:29.949Z,14.90
2018-09-09T01:40:59.638Z,14.80
2018-09-09T01:43:29.217Z,14.80
2018-09-09T01:45:58.768Z,14.80
2018-09-09T01:48:28.505Z,14.80
2018-09-09T01:50:58.323Z,14.90
2018-09-09T01:53:28.264Z,14.90
2018-09-09T01:55:57.858Z,14.90
2018-09-09T01:58:27.477Z,14.80
2018-09-09T02:00:57.086Z,14.90
2018-09-09T02:03:26.764Z,14.90
2018-09-09T02:05:56.519Z,15.00
2018-09-09T02:08:29.936Z,14.90
2018-09-09T02:11:01.235Z,14.90
2018-09-09T02:13:32.570Z,14.80
2018-09-09T02:16:02.397Z,14.70
2018-09-09T02:18:32.422Z,14.70
2018-09-09T02:21:02.150Z,14.70
2018-09-09T02:23:31.663Z,14.80
2018-09-09T02:26:01.627Z,14.70
2018-09-09T02:28:34.225Z,14.60
2018-09-09T02:31:04.302Z,14.70
2018-09-09T02:33:33.931Z,14.70
2018-09-09T02:36:03.398Z,14.60
2018-09-09T02:38:32.988Z,14.60
2018-09-09T02:41:02.519Z,14.60
2018-09-09T02:43:32.103Z,14.60
2018-09-09T02:46:03.253Z,14.50
2018-09-09T02:48:34.199Z,14.50
2018-09-09T02:51:03.792Z,14.60
2018-09-09T02:53:33.477Z,14.60
2018-09-09T02:56:07.709Z,14.50
2018-09-09T02:58:37.625Z,14.50
2018-09-09T03:01:07.683Z,14.40
2018-09-09T03:03:37.708Z,14.50
2018-09-09T03:06:07.462Z,14.40
2018-09-09T03:08:37.453Z,14.40
2018-09-09T03:11:13.936Z,14.40
2018-09-09T03:13:46.555Z,14.40
2018-09-09T03:16:17.783Z,14.40
2018-09-09T03:18:47.833Z,14.30
2018-09-09T03:21:17.770Z,14.40
2018-09-09T03:23:47.424Z,14.40
2018-09-09T03:26:16.937Z,14.30
2018-09-09T03:28:46.756Z,14.30
2018-09-09T03:31:16.275Z,14.30
2018-09-09T03:33:46.875Z,14.30
2018-09-09T03:36:16.720Z,14.30
2018-09-09T03:38:46.590Z,14.30
2018-09-09T03:41:16.469Z,14.30
2018-09-09T03:43:47.201Z,14.30
2018-09-09T03:46:16.698Z,14.30
2018-09-09T03:48:46.305Z,14.30
2018-09-09T03:51:16.612Z,14.30
2018-09-09T03:53:45.988Z,14.40
2018-09-09T03:56:15.849Z,14.30
2018-09-09T03:58:45.775Z,14.20
2018-09-09T04:01:15.265Z,14.20
2018-09-09T04:03:45.495Z,14.30
2018-09-09T04:06:15.391Z,14.30
2018-09-09T04:08:44.951Z,14.30
2018-09-09T04:11:14.699Z,14.30
2018-09-09T04:13:47.593Z,14.40
2018-09-09T04:16:17.526Z,14.30
2018-09-09T04:18:47.817Z,14.30
2018-09-09T04:21:17.753Z,14.30
2018-09-09T04:23:47.388Z,14.30
2018-09-09T04:26:17.390Z,14.30
2018-09-09T04:28:47.300Z,14.40
2018-09-09T04:31:17.116Z,14.40
2018-09-09T04:33:46.693Z,14.50
2018-09-09T04:36:16.737Z,14.40
2018-09-09T04:38:46.424Z,14.50
2018-09-09T04:41:16.612Z,14.40
2018-09-09T04:43:46.549Z,14.40
2018-09-09T04:46:16.439Z,14.40
2018-09-09T04:48:46.217Z,14.40
2018-09-09T04:51:16.037Z,14.40
2018-09-09T04:53:46.249Z,14.40
2018-09-09T04:56:16.243Z,14.40
2018-09-09T04:58:47.702Z,14.40
2018-09-09T05:01:17.647Z,14.50
2018-09-09T05:03:47.205Z,14.50
2018-09-09T05:06:16.602Z,14.50
2018-09-09T05:08:46.087Z,14.50
2018-09-09T05:11:16.547Z,14.50
2018-09-09T05:13:46.243Z,14.60
2018-09-09T05:16:15.977Z,14.70
2018-09-09T05:18:45.470Z,14.70
2018-09-09T05:21:15.061Z,14.60
2018-09-09T05:23:44.835Z,14.70
2018-09-09T05:26:14.734Z,14.70
2018-09-09T05:28:44.336Z,14.70
2018-09-09T05:31:14.016Z,14.70
2018-09-09T05:33:43.866Z,14.70
2018-09-09T05:36:13.842Z,14.70
2018-09-09T05:38:43.671Z,14.70
2018-09-09T05:41:13.340Z,14.70
2018-09-09T05:43:42.926Z,14.60
2018-09-09T05:46:12.678Z,14.70
2018-09-09T05:48:42.199Z,14.80
2018-09-09T05:51:11.925Z,14.80
2018-09-09T05:53:41.720Z,14.90
2018-09-09T05:56:11.223Z,14.90
2018-09-09T05:58:41.081Z,14.80
2018-09-09T06:01:10.450Z,14.80
2018-09-09T06:03:40.355Z,14.80
2018-09-09T06:06:10.242Z,14.90
2018-09-09T06:08:39.989Z,15.00
2018-09-09T06:11:09.670Z,15.00
2018-09-09T06:13:39.318Z,15.00
2018-09-09T06:16:09.005Z,15.00
2018-09-09T06:18:39.411Z,15.00
2018-09-09T06:21:09.036Z,15.00
2018-09-09T06:23:38.696Z,15.10
2018-09-09T06:26:08.246Z,15.20
2018-09-09T06:28:37.958Z,15.20
2018-09-09T06:31:07.736Z,15.20
2018-09-09T06:33:37.753Z,15.30
2018-09-09T06:36:07.769Z,15.40
2018-09-09T06:38:37.328Z,15.40
2018-09-09T06:41:07.135Z,15.40
2018-09-09T06:43:36.798Z,15.50
2018-09-09T06:46:06.522Z,15.50
2018-09-09T06:48:36.091Z,15.50
2018-09-09T06:51:05.532Z,15.50
2018-09-09T06:53:35.027Z,15.50
2018-09-09T06:56:04.691Z,15.60
2018-09-09T06:58:34.620Z,15.60
2018-09-09T07:01:05.420Z,15.70
2018-09-09T07:03:35.251Z,15.70
2018-09-09T07:06:04.901Z,15.70
2018-09-09T07:08:34.693Z,15.80
2018-09-09T07:11:04.582Z,15.80
2018-09-09T07:13:34.095Z,15.80
2018-09-09T07:16:03.920Z,15.90
2018-09-09T07:18:33.630Z,15.90
2018-09-09T07:21:03.283Z,16.00
2018-09-09T07:23:33.075Z,16.10
2018-09-09T07:26:02.862Z,16.10
2018-09-09T07:28:32.830Z,16.20
2018-09-09T07:31:02.563Z,16.20
2018-09-09T07:33:32.480Z,16.30
2018-09-09T07:36:02.269Z,16.20
2018-09-09T07:38:32.001Z,16.20
2018-09-09T07:41:01.641Z,16.30
2018-09-09T07:43:33.519Z,16.40
2018-09-09T07:46:03.466Z,16.50
2018-09-09T07:48:32.961Z,16.60
2018-09-09T07:51:02.614Z,16.60
2018-09-09T07:53:32.157Z,16.50
2018-09-09T07:56:02.201Z,16.50
2018-09-09T07:58:32.206Z,16.50
2018-09-09T08:01:02.061Z,16.50
2018-09-09T08:03:31.802Z,16.60
2018-09-09T08:06:01.290Z,16.70
2018-09-09T08:08:31.072Z,16.80
2018-09-09T08:11:00.592Z,16.80
2018-09-09T08:13:30.180Z,16.90
2018-09-09T08:16:00.123Z,16.90
2018-09-09T08:18:30.037Z,17.00
2018-09-09T08:21:00.382Z,16.90
2018-09-09T08:23:30.590Z,17.10
2018-09-09T08:26:00.718Z,17.30
2018-09-09T08:28:30.638Z,17.30
2018-09-09T08:31:00.572Z,17.40
2018-09-09T08:33:30.532Z,17.70
2018-09-09T08:36:00.105Z,18.50
2018-09-09T08:38:29.999Z,19.10
2018-09-09T08:40:59.488Z,19.10
2018-09-09T08:43:29.329Z,19.20
2018-09-09T08:46:02.381Z,19.60
2018-09-09T08:48:32.738Z,20.40
2018-09-09T08:51:02.568Z,20.90
2018-09-09T08:53:32.256Z,21.00
2018-09-09T08:56:01.999Z,21.30
2018-09-09T08:58:31.763Z,21.70
2018-09-09T09:01:01.495Z,22.10
2018-09-09T09:03:30.973Z,22.40
2018-09-09T09:06:00.539Z,22.80
2018-09-09T09:08:30.249Z,23.20
2018-09-09T09:10:59.945Z,23.10
2018-09-09T09:13:29.629Z,22.90
2018-09-09T09:15:59.445Z,22.70
2018-09-09T09:18:28.917Z,22.50
2018-09-09T09:21:00.762Z,22.60
2018-09-09T09:23:30.855Z,22.60
2018-09-09T09:26:00.881Z,22.80
2018-09-09T09:28:30.532Z,23.20
2018-09-09T09:31:00.174Z,23.30
2018-09-09T09:33:29.924Z,23.40
2018-09-09T09:35:59.516Z,23.40
2018-09-09T09:38:29.480Z,23.70
2018-09-09T09:40:59.079Z,24.10
2018-09-09T09:43:28.376Z,24.40
2018-09-09T09:45:58.153Z,24.30
2018-09-09T09:48:27.728Z,24.70
2018-09-09T09:50:57.509Z,24.70
2018-09-09T09:53:27.942Z,24.90
2018-09-09T09:55:58.129Z,24.80
2018-09-09T09:58:27.828Z,24.50
2018-09-09T10:01:01.115Z,24.20
2018-09-09T10:03:30.956Z,23.80
2018-09-09T10:06:01.098Z,23.50
2018-09-09T10:08:30.535Z,23.40
2018-09-09T10:11:00.601Z,23.30
2018-09-09T10:13:30.723Z,23.10
2018-09-09T10:16:00.302Z,22.70
2018-09-09T10:18:29.761Z,22.60
2018-09-09T10:20:59.698Z,22.60
2018-09-09T10:23:29.075Z,22.70
2018-09-09T10:25:59.329Z,22.80
2018-09-09T10:28:28.773Z,22.90
2018-09-09T10:30:58.413Z,22.70
2018-09-09T10:33:27.877Z,22.50
2018-09-09T10:35:57.547Z,22.30
2018-09-09T10:38:27.208Z,22.40
2018-09-09T10:40:56.917Z,22.70
2018-09-09T10:43:27.315Z,23.20
2018-09-09T10:45:57.031Z,23.40
2018-09-09T10:48:27.040Z,23.30
2018-09-09T10:50:56.766Z,23.30
2018-09-09T10:53:26.455Z,23.10
2018-09-09T10:55:55.994Z,22.80
2018-09-09T10:58:25.691Z,22.90
2018-09-09T11:00:55.243Z,23.10
2018-09-09T11:03:24.783Z,23.00
2018-09-09T11:05:54.473Z,22.90
2018-09-09T11:08:24.056Z,22.60
2018-09-09T11:10:53.735Z,22.50
2018-09-09T11:13:25.195Z,22.60
2018-09-09T11:15:55.473Z,22.50
2018-09-09T11:18:25.797Z,22.50
2018-09-09T11:20:55.438Z,22.50
2018-09-09T11:23:25.251Z,22.40
2018-09-09T11:25:55.022Z,22.50
2018-09-09T11:28:24.510Z,22.70
2018-09-09T11:30:54.269Z,22.80
2018-09-09T11:33:23.912Z,22.80
2018-09-09T11:35:53.670Z,22.60
2018-09-09T11:38:23.616Z,22.60
2018-09-09T11:40:54.033Z,23.00
2018-09-09T11:43:23.430Z,23.30
2018-09-09T11:45:52.982Z,23.70
2018-09-09T11:48:22.477Z,23.80
2018-09-09T11:50:52.610Z,23.60
2018-09-09T11:53:22.277Z,23.30
2018-09-09T11:55:51.906Z,23.30
2018-09-09T11:58:21.366Z,23.80
2018-09-09T12:00:50.824Z,24.20
2018-09-09T12:03:20.308Z,24.50
2018-09-09T12:05:49.723Z,24.50
2018-09-09T12:08:19.535Z,24.20
2018-09-09T12:10:49.506Z,24.20
2018-09-09T12:13:19.852Z,23.80
2018-09-09T12:15:51.450Z,23.90
2018-09-09T12:18:22.535Z,23.90
2018-09-09T12:20:52.120Z,23.90
2018-09-09T12:23:21.858Z,23.80
2018-09-09T12:25:51.970Z,24.10
2018-09-09T12:28:23.381Z,24.20
2018-09-09T12:30:53.299Z,24.30
2018-09-09T12:33:24.502Z,24.20
2018-09-09T12:35:54.120Z,24.50
2018-09-09T12:38:25.299Z,24.50
2018-09-09T12:40:55.085Z,24.80
2018-09-09T12:43:30.003Z,24.70
2018-09-09T12:46:04.749Z,24.70
2018-09-09T12:48:39.661Z,24.50
2018-09-09T12:51:09.704Z,24.50
2018-09-09T12:53:39.096Z,24.80
2018-09-09T12:56:09.479Z,24.60
2018-09-09T12:58:38.878Z,24.40
2018-09-09T13:01:08.672Z,24.40
2018-09-09T13:03:38.027Z,24.50
2018-09-09T13:06:07.802Z,24.80
2018-09-09T13:08:37.758Z,25.10
2018-09-09T13:11:07.282Z,25.10
2018-09-09T13:13:36.851Z,24.80
2018-09-09T13:16:07.020Z,24.70
2018-09-09T13:18:37.468Z,24.80
2018-09-09T13:21:07.648Z,24.90
2018-09-09T13:23:37.394Z,25.00
2018-09-09T13:26:07.080Z,25.10
2018-09-09T13:28:36.715Z,25.10
2018-09-09T13:31:06.467Z,25.00
2018-09-09T13:33:36.167Z,24.80
2018-09-09T13:36:05.828Z,24.60
2018-09-09T13:38:35.415Z,24.40
2018-09-09T13:41:04.844Z,24.20
2018-09-09T13:43:34.396Z,24.20
2018-09-09T13:46:04.052Z,24.20
2018-09-09T13:48:33.739Z,24.40
2018-09-09T13:51:03.307Z,24.60
2018-09-09T13:53:33.386Z,24.70
2018-09-09T13:56:03.215Z,24.70
2018-09-09T13:58:32.909Z,24.70
2018-09-09T14:01:02.626Z,24.70
2018-09-09T14:03:32.400Z,24.40
2018-09-09T14:06:03.041Z,24.20
2018-09-09T14:08:32.878Z,23.90
2018-09-09T14:11:02.450Z,23.80
2018-09-09T14:13:31.991Z,23.70
2018-09-09T14:16:01.822Z,23.90
2018-09-09T14:18:31.613Z,23.90
2018-09-09T14:21:01.102Z,24.10
2018-09-09T14:23:30.679Z,24.00
2018-09-09T14:26:00.452Z,23.70
2018-09-09T14:28:30.137Z,23.60
2018-09-09T14:31:00.113Z,23.40
2018-09-09T14:33:29.902Z,23.20
2018-09-09T14:36:00.403Z,23.10
2018-09-09T14:38:30.821Z,22.80
2018-09-09T14:41:01.123Z,22.70
2018-09-09T14:43:30.802Z,22.80
2018-09-09T14:46:00.917Z,23.00
2018-09-09T14:48:32.189Z,23.20
2018-09-09T14:51:01.943Z,23.40
2018-09-09T14:53:31.873Z,23.50
2018-09-09T14:56:01.303Z,23.40
2018-09-09T14:58:31.403Z,23.30
2018-09-09T15:01:01.145Z,23.20
2018-09-09T15:03:30.757Z,23.30
2018-09-09T15:06:00.411Z,23.00
2018-09-09T15:08:30.134Z,23.00
2018-09-09T15:10:59.880Z,23.00
2018-09-09T15:13:29.620Z,23.20
2018-09-09T15:15:59.078Z,23.40
2018-09-09T15:18:28.561Z,23.60
2018-09-09T15:20:58.224Z,23.50
2018-09-09T15:23:27.786Z,23.20
2018-09-09T15:25:57.531Z,23.20
2018-09-09T15:28:27.311Z,23.10
2018-09-09T15:30:57.185Z,22.90
2018-09-09T15:33:26.679Z,22.90
2018-09-09T15:35:55.990Z,22.80
2018-09-09T15:38:26.008Z,22.80
2018-09-09T15:40:56.073Z,22.90
2018-09-09T15:43:26.055Z,22.80
2018-09-09T15:45:55.818Z,22.70
2018-09-09T15:48:25.439Z,22.70
2018-09-09T15:50:57.823Z,22.80
2018-09-09T15:53:27.493Z,22.60
2018-09-09T15:55:57.044Z,22.60
2018-09-09T15:58:26.920Z,22.30
2018-09-09T16:00:56.356Z,22.10
2018-09-09T16:03:26.097Z,22.00
2018-09-09T16:05:55.577Z,21.90
2018-09-09T16:08:24.993Z,22.00
2018-09-09T16:10:54.781Z,22.00
2018-09-09T16:13:24.739Z,21.90
2018-09-09T16:15:54.789Z,22.00
2018-09-09T16:18:24.140Z,22.00
2018-09-09T16:20:53.835Z,22.10
2018-09-09T16:23:23.466Z,22.10
2018-09-09T16:25:52.843Z,22.00
2018-09-09T16:28:23.485Z,22.10
2018-09-09T16:30:52.889Z,22.20
2018-09-09T16:33:22.656Z,22.30
2018-09-09T16:35:52.478Z,22.30
2018-09-09T16:38:22.699Z,22.30
2018-09-09T16:40:52.736Z,22.20
2018-09-09T16:43:22.316Z,22.10
2018-09-09T16:45:52.011Z,22.20
2018-09-09T16:48:21.594Z,22.10
2018-09-09T16:50:51.206Z,22.10
2018-09-09T16:53:22.893Z,22.00
2018-09-09T16:55:52.456Z,21.90
2018-09-09T16:58:22.728Z,21.90
2018-09-09T17:00:52.390Z,21.80
2018-09-09T17:03:22.057Z,21.80
2018-09-09T17:05:53.287Z,21.90
2018-09-09T17:08:22.737Z,21.90
2018-09-09T17:10:52.502Z,22.00
2018-09-09T17:13:21.942Z,21.90
2018-09-09T17:15:51.859Z,21.90
2018-09-09T17:18:21.448Z,21.90
2018-09-09T17:20:51.077Z,21.90
2018-09-09T17:23:20.791Z,21.90
2018-09-09T17:25:51.192Z,21.90
2018-09-09T17:28:21.218Z,21.80
2018-09-09T17:30:50.944Z,21.70
2018-09-09T17:33:20.739Z,21.70
2018-09-09T17:35:51.908Z,21.70
2018-09-09T17:38:21.402Z,21.60
2018-09-09T17:40:51.148Z,21.60
2018-09-09T17:43:20.714Z,21.50
2018-09-09T17:45:50.273Z,21.40
2018-09-09T17:48:19.737Z,21.40
2018-09-09T17:50:49.091Z,21.30
2018-09-09T17:53:19.087Z,21.30
2018-09-09T17:55:48.601Z,21.30
2018-09-09T17:58:17.955Z,21.20
2018-09-09T18:00:49.343Z,21.00
2018-09-09T18:03:18.574Z,21.00
2018-09-09T18:05:48.111Z,20.80
2018-09-09T18:08:17.554Z,20.70
2018-09-09T18:10:47.444Z,20.70
2018-09-09T18:13:17.932Z,20.60
2018-09-09T18:15:48.225Z,20.40
2018-09-09T18:18:18.422Z,20.30
2018-09-09T18:20:48.112Z,20.20
2018-09-09T18:23:17.478Z,20.10
2018-09-09T18:25:47.047Z,20.10
2018-09-09T18:28:16.553Z,20.10
2018-09-09T18:30:46.052Z,20.00
2018-09-09T18:33:15.581Z,19.90
2018-09-09T18:35:45.675Z,19.90
2018-09-09T18:38:15.292Z,19.90
2018-09-09T18:40:44.761Z,19.90
2018-09-09T18:43:14.179Z,19.90
2018-09-09T18:45:43.574Z,19.90
2018-09-09T18:48:14.138Z,19.80
2018-09-09T18:50:43.896Z,19.70
2018-09-09T18:53:13.494Z,19.60
2018-09-09T18:55:42.933Z,19.60
2018-09-09T18:58:12.412Z,19.60
2018-09-09T19:00:42.037Z,19.50
2018-09-09T19:03:11.423Z,19.50
2018-09-09T19:05:40.666Z,19.40
2018-09-09T19:08:10.334Z,19.30
2018-09-09T19:10:39.731Z,19.20
2018-09-09T19:13:09.423Z,19.10
2018-09-09T19:15:38.911Z,19.10
2018-09-09T19:18:08.731Z,19.00
2018-09-09T19:20:38.502Z,19.00
2018-09-09T19:23:08.193Z,19.00
2018-09-09T19:25:38.746Z,19.00
2018-09-09T19:28:08.040Z,18.90
2018-09-09T19:30:37.382Z,18.80
2018-09-09T19:33:07.287Z,18.80
2018-09-09T19:35:36.779Z,18.80
2018-09-09T19:38:06.357Z,18.80
2018-09-09T19:40:35.855Z,18.60
2018-09-09T19:43:05.554Z,18.50
2018-09-09T19:45:35.037Z,18.50
2018-09-09T19:48:04.528Z,18.60
2018-09-09T19:50:33.971Z,18.50
2018-09-09T19:53:03.706Z,18.40
2018-09-09T19:55:33.138Z,18.30
2018-09-09T19:58:02.778Z,18.20
2018-09-09T20:00:32.372Z,18.30
2018-09-09T20:03:01.757Z,18.20
2018-09-09T20:05:31.173Z,18.20
2018-09-09T20:08:00.692Z,18.20
2018-09-09T20:10:30.185Z,18.10
2018-09-09T20:12:59.596Z,18.20
2018-09-09T20:15:28.823Z,18.30
2018-09-09T20:17:58.223Z,18.20
2018-09-09T20:20:27.792Z,18.10
2018-09-09T20:22:57.497Z,18.00
2018-09-09T20:25:26.842Z,18.00
2018-09-09T20:27:59.190Z,18.00
2018-09-09T20:30:30.641Z,17.90
2018-09-09T20:33:00.255Z,17.90
2018-09-09T20:35:29.868Z,18.00
2018-09-09T20:37:59.543Z,18.00
2018-09-09T20:40:29.384Z,18.10
2018-09-09T20:42:58.941Z,18.10
2018-09-09T20:45:28.461Z,18.20
2018-09-09T20:47:57.877Z,18.10
2018-09-09T20:50:27.401Z,18.10
2018-09-09T20:52:57.037Z,18.10
2018-09-09T20:55:26.493Z,18.10
2018-09-09T20:57:55.918Z,18.20
2018-09-09T21:00:25.600Z,18.20
2018-09-09T21:02:55.129Z,18.20
2018-09-09T21:05:24.838Z,18.20
2018-09-09T21:07:54.357Z,18.20
2018-09-09T21:10:26.738Z,18.30
2018-09-09T21:12:56.267Z,18.30
2018-09-09T21:15:25.845Z,18.20
2018-09-09T21:17:55.143Z,18.20
2018-09-09T21:20:24.543Z,18.20
2018-09-09T21:22:54.089Z,18.20
2018-09-09T21:25:23.664Z,18.10
2018-09-09T21:27:53.245Z,18.10
2018-09-09T21:30:22.913Z,18.10
2018-09-09T21:32:52.438Z,18.10
2018-09-09T21:35:22.141Z,18.10
2018-09-09T21:37:51.626Z,18.10
2018-09-09T21:40:21.154Z,18.10
2018-09-09T21:42:50.488Z,18.10
2018-09-09T21:45:20.241Z,18.10
2018-09-09T21:47:49.724Z,18.20
2018-09-09T21:50:19.401Z,18.20
2018-09-09T21:52:48.939Z,18.10
2018-09-09T21:55:18.974Z,18.20
2018-09-09T21:57:48.279Z,18.10
2018-09-09T22:00:17.859Z,18.10
2018-09-09T22:02:47.413Z,18.10
2018-09-09T22:05:16.798Z,18.00
2018-09-09T22:07:46.274Z,18.00
2018-09-09T22:10:15.991Z,18.00
2018-09-09T22:12:45.528Z,18.00
2018-09-09T22:15:14.913Z,18.00
2018-09-09T22:17:44.606Z,18.00
2018-09-09T22:20:14.242Z,18.00
2018-09-09T22:22:44.007Z,18.00
2018-09-09T22:25:13.696Z,18.00
2018-09-09T22:27:43.223Z,17.90
2018-09-09T22:30:12.862Z,17.90
2018-09-09T22:32:42.529Z,17.80
2018-09-09T22:35:12.455Z,17.70
2018-09-09T22:37:42.597Z,17.70
2018-09-09T22:40:12.188Z,17.60
2018-09-09T22:42:41.921Z,17.60
2018-09-09T22:45:11.816Z,17.60
2018-09-09T22:47:41.342Z,17.70
2018-09-09T22:50:11.209Z,17.70
2018-09-09T22:52:40.941Z,17.70
2018-09-09T22:55:10.498Z,17.60
2018-09-09T22:57:40.428Z,17.60
2018-09-09T23:00:10.187Z,17.60
2018-09-09T23:02:40.036Z,17.60
2018-09-09T23:05:09.845Z,17.70
2018-09-09T23:07:39.536Z,17.60
2018-09-09T23:10:09.037Z,17.50
2018-09-09T23:12:38.796Z,17.50
2018-09-09T23:15:08.778Z,17.40
2018-09-09T23:17:38.275Z,17.40
2018-09-09T23:20:09.104Z,17.40
2018-09-09T23:22:38.934Z,17.30
2018-09-09T23:25:08.678Z,17.30
2018-09-09T23:27:38.141Z,17.30
2018-09-09T23:30:07.542Z,17.30
2018-09-09T23:32:37.080Z,17.30
2018-09-09T23:35:06.859Z,17.20
2018-09-09T23:37:36.510Z,17.20
2018-09-09T23:40:06.118Z,17.20
2018-09-09T23:42:35.672Z,17.20
2018-09-09T23:45:05.787Z,17.10
2018-09-09T23:47:36.134Z,17.10
2018-09-09T23:50:05.900Z,17.20
2018-09-09T23:52:35.544Z,17.20
2018-09-09T23:55:06.022Z,17.20
2018-09-09T23:57:36.967Z,17.30
